Time;durP1;ratioP1;P1;durP2;ratioP2;P2;SDS_P1;SDS_P2;PMS_P1;PMS_P2;Temp;Humidity;BMP_temperature;BMP_pressure;BME280_temperature;BME280_humidity;BME280_pressure;Samples;Min_cycle;Max_cycle;Signal;HPM_P1;HPM_P2
2023/08/15 00:01:08;;;;;;;4.40;3.50;;;26.00;38.70;;;;;;10264020;28;20323;-71
2023/08/15 00:06:11;;;;;;;3.07;2.87;;;26.00;39.30;;;;;;10272623;28;20235;-71
2023/08/15 00:11:15;;;;;;;4.00;3.60;;;25.90;38.90;;;;;;10270790;28;20242;-71
2023/08/15 00:16:19;;;;;;;3.50;3.20;;;25.90;39.10;;;;;;10263630;28;20235;-71
2023/08/15 00:21:22;;;;;;;3.53;3.23;;;25.90;39.30;;;;;;10268102;28;20877;-71
2023/08/15 00:26:25;;;;;;;3.47;3.23;;;25.90;39.10;;;;;;10270736;28;20266;-71
2023/08/15 00:31:30;;;;;;;3.70;3.40;;;25.80;39.00;;;;;;10264771;28;20239;-71
2023/08/15 00:36:33;;;;;;;4.60;3.60;;;25.70;39.70;;;;;;10269506;28;20634;-70
2023/08/15 00:41:37;;;;;;;3.70;3.50;;;25.60;39.40;;;;;;10266880;28;20258;-71
2023/08/15 00:46:42;;;;;;;3.93;3.63;;;25.40;39.80;;;;;;10266609;28;20228;-70
2023/08/15 00:51:46;;;;;;;3.90;3.60;;;25.20;40.40;;;;;;10270404;28;20239;-71
2023/08/15 00:56:53;;;;;;;5.20;3.73;;;25.10;40.40;;;;;;10266255;28;20232;-71
2023/08/15 01:02:00;;;;;;;5.10;3.77;;;25.00;40.40;;;;;;10265918;28;20246;-71
2023/08/15 01:07:03;;;;;;;3.70;3.40;;;24.90;40.90;;;;;;10261069;28;20235;-71
2023/08/15 01:12:18;;;;;;;3.23;2.80;;;24.70;40.60;;;;;;10274451;28;20240;-71
2023/08/15 01:17:32;;;;;;;3.80;3.40;;;24.60;41.60;;;;;;10266566;28;20322;-71
2023/08/15 01:22:40;;;;;;;3.93;3.60;;;24.60;42.60;;;;;;10267609;28;20263;-71
2023/08/15 01:27:44;;;;;;;3.53;3.23;;;24.60;41.30;;;;;;10259822;28;20228;-71
2023/08/15 01:32:53;;;;;;;3.63;3.43;;;24.50;41.00;;;;;;10267862;28;20238;-71
2023/08/15 01:38:03;;;;;;;3.20;3.00;;;24.60;41.70;;;;;;10267161;28;20743;-70
2023/08/15 01:43:11;;;;;;;3.30;3.10;;;24.60;41.70;;;;;;10271058;28;20243;-71
2023/08/15 01:48:14;;;;;;;3.90;3.60;;;24.70;41.70;;;;;;10261534;28;20247;-71
2023/08/15 01:53:17;;;;;;;3.40;3.20;;;24.70;40.60;;;;;;10268307;28;20232;-71
2023/08/15 01:58:21;;;;;;;3.27;3.07;;;24.70;40.70;;;;;;10260921;28;20334;-71
2023/08/15 02:03:25;;;;;;;3.83;3.53;;;24.70;40.60;;;;;;10265224;28;20236;-71
2023/08/15 02:08:29;;;;;;;3.90;3.60;;;24.70;40.60;;;;;;10263693;28;20693;-71
2023/08/15 02:13:33;;;;;;;3.50;3.20;;;24.70;40.70;;;;;;10268360;28;20258;-71
2023/08/15 02:18:36;;;;;;;4.07;3.70;;;24.70;41.00;;;;;;10269036;28;20234;-71
2023/08/15 02:23:44;;;;;;;3.80;3.60;;;24.70;40.90;;;;;;10266978;28;20735;-71
2023/08/15 02:28:48;;;;;;;4.67;3.47;;;24.60;40.50;;;;;;10260152;28;20236;-71
2023/08/15 02:33:51;;;;;;;3.70;3.47;;;24.50;41.20;;;;;;10269388;28;20238;-71
2023/08/15 02:38:54;;;;;;;3.57;3.37;;;24.50;41.90;;;;;;10263159;28;20273;-71
2023/08/15 02:44:00;;;;;;;3.80;3.50;;;24.50;41.20;;;;;;10271393;28;20235;-70
2023/08/15 02:49:03;;;;;;;3.80;3.40;;;24.50;41.60;;;;;;10263797;28;20776;-71
2023/08/15 02:54:07;;;;;;;3.50;3.20;;;24.50;41.10;;;;;;10264195;28;20259;-71
2023/08/15 02:59:11;;;;;;;4.60;3.40;;;24.50;41.00;;;;;;10268978;28;20246;-71
2023/08/15 03:04:15;;;;;;;3.60;3.30;;;24.40;41.50;;;;;;10269128;28;20241;-71
2023/08/15 03:09:18;;;;;;;4.27;3.47;;;24.30;41.10;;;;;;10263593;28;20243;-70
2023/08/15 03:14:22;;;;;;;4.10;3.70;;;24.20;41.10;;;;;;10264833;28;20231;-71
2023/08/15 03:19:25;;;;;;;3.80;3.50;;;24.00;42.00;;;;;;10271519;28;20239;-71
2023/08/15 03:24:30;;;;;;;5.20;3.50;;;23.80;41.90;;;;;;10266314;28;20236;-71
2023/08/15 03:29:35;;;;;;;3.83;3.27;;;23.70;42.20;;;;;;10259130;28;20241;-71
2023/08/15 03:34:38;;;;;;;3.60;3.30;;;23.70;42.60;;;;;;10266787;28;20234;-71
2023/08/15 03:39:41;;;;;;;3.67;3.27;;;23.70;42.20;;;;;;10267554;28;20334;-71
2023/08/15 03:44:46;;;;;;;3.47;3.03;;;23.80;42.30;;;;;;10273702;28;20242;-70
2023/08/15 03:49:49;;;;;;;3.30;3.10;;;23.80;42.70;;;;;;10273357;28;20259;-71
2023/08/15 03:54:52;;;;;;;3.23;3.03;;;23.80;42.30;;;;;;10271585;28;20239;-71
2023/08/15 03:59:57;;;;;;;3.67;3.37;;;23.90;42.30;;;;;;10262258;28;20620;-71
2023/08/15 04:05:00;;;;;;;3.37;3.10;;;23.80;42.50;;;;;;10274589;28;20783;-71
2023/08/15 04:10:03;;;;;;;3.57;3.27;;;23.80;42.20;;;;;;10267835;28;20234;-71
2023/08/15 04:15:09;;;;;;;3.63;3.23;;;23.90;42.40;;;;;;10273971;28;20235;-71
2023/08/15 04:20:13;;;;;;;3.70;3.40;;;23.90;42.50;;;;;;10264319;28;20243;-71
2023/08/15 04:25:16;;;;;;;3.73;3.40;;;23.90;42.30;;;;;;10269783;28;20240;-71
2023/08/15 04:30:21;;;;;;;4.20;3.80;;;23.90;42.20;;;;;;10269000;28;20815;-71
2023/08/15 04:35:24;;;;;;;4.20;3.90;;;23.80;42.60;;;;;;10270938;28;20236;-70
2023/08/15 04:40:31;;;;;;;3.70;3.40;;;23.80;42.60;;;;;;10269152;28;20240;-71
2023/08/15 04:45:40;;;;;;;3.70;3.40;;;23.70;43.20;;;;;;10265869;28;20239;-71
2023/08/15 04:50:44;;;;;;;4.60;4.20;;;23.60;43.10;;;;;;10270473;28;20234;-71
2023/08/15 04:55:47;;;;;;;4.60;4.30;;;23.60;43.00;;;;;;10272147;28;20242;-71
2023/08/15 05:00:51;;;;;;;4.03;3.73;;;23.50;43.20;;;;;;10269641;28;20228;-71
2023/08/15 05:05:54;;;;;;;4.40;4.10;;;23.50;43.90;;;;;;10273049;28;20240;-71
2023/08/15 05:10:58;;;;;;;4.60;4.30;;;23.50;43.80;;;;;;10262691;28;20295;-71
2023/08/15 05:16:03;;;;;;;4.60;4.20;;;23.40;43.80;;;;;;10275089;28;20310;-71
2023/08/15 05:21:06;;;;;;;4.73;4.40;;;23.30;44.80;;;;;;10261611;28;20242;-71
2023/08/15 05:26:09;;;;;;;4.67;4.30;;;23.30;44.50;;;;;;10266007;28;20232;-71
2023/08/15 05:31:15;;;;;;;5.50;5.00;;;23.20;44.90;;;;;;10264226;28;20342;-71
2023/08/15 05:36:18;;;;;;;5.50;5.10;;;23.20;46.80;;;;;;10272468;28;20234;-71
2023/08/15 05:41:21;;;;;;;5.13;4.83;;;23.20;46.00;;;;;;10271439;28;21034;-71
2023/08/15 05:46:26;;;;;;;5.80;5.20;;;23.20;46.50;;;;;;10263929;28;20232;-71
2023/08/15 05:51:29;;;;;;;4.80;4.50;;;23.30;47.60;;;;;;10268931;28;20248;-71
2023/08/15 05:56:32;;;;;;;5.57;5.07;;;23.50;46.80;;;;;;10261790;28;20262;-71
2023/08/15 06:01:38;;;;;;;5.30;4.90;;;23.50;46.80;;;;;;10269158;28;20246;-71
2023/08/15 06:06:41;;;;;;;6.23;5.80;;;23.70;47.40;;;;;;10270693;28;20227;-71
2023/08/15 06:11:44;;;;;;;6.50;5.93;;;23.80;47.00;;;;;;10270121;28;20243;-71
2023/08/15 06:16:50;;;;;;;6.07;5.57;;;23.90;47.20;;;;;;10269719;28;20243;-71
2023/08/15 06:21:53;;;;;;;5.97;5.47;;;23.90;48.10;;;;;;10267585;28;20259;-71
2023/08/15 06:26:56;;;;;;;5.97;5.43;;;24.10;47.40;;;;;;10262163;28;20326;-71
2023/08/15 06:32:00;;;;;;;5.97;5.57;;;24.20;47.50;;;;;;10264944;28;20321;-71
2023/08/15 06:37:04;;;;;;;6.33;5.77;;;24.40;48.10;;;;;;10268351;28;20233;-71
2023/08/15 06:42:07;;;;;;;6.57;5.97;;;24.50;47.60;;;;;;10269409;28;20643;-71
2023/08/15 06:47:12;;;;;;;7.07;6.47;;;24.70;47.60;;;;;;10265210;28;20231;-70
2023/08/15 06:52:15;;;;;;;7.00;6.40;;;24.90;47.80;;;;;;10264042;28;20768;-71
2023/08/15 06:57:18;;;;;;;6.47;5.97;;;25.10;47.30;;;;;;10263034;28;20240;-71
2023/08/15 07:02:23;;;;;;;7.00;6.40;;;25.20;47.00;;;;;;10270327;28;20243;-71
2023/08/15 07:07:26;;;;;;;6.87;6.37;;;25.40;47.50;;;;;;10264755;28;20236;-71
2023/08/15 07:12:29;;;;;;;6.73;6.23;;;25.60;46.90;;;;;;10262833;28;20279;-70
2023/08/15 07:17:34;;;;;;;7.13;6.60;;;25.70;46.70;;;;;;10265979;28;20784;-71
2023/08/15 07:22:37;;;;;;;6.40;5.90;;;25.90;46.90;;;;;;10276214;28;20244;-71
2023/08/15 07:27:41;;;;;;;6.97;6.47;;;26.00;46.70;;;;;;10271835;28;20337;-71
2023/08/15 07:32:45;;;;;;;6.30;5.90;;;26.20;46.80;;;;;;10270900;28;20709;-71
2023/08/15 07:37:48;;;;;;;6.07;5.67;;;26.40;46.50;;;;;;10269793;28;20236;-71
2023/08/15 07:42:54;;;;;;;6.77;6.27;;;26.50;46.10;;;;;;10272763;28;20258;-71
2023/08/15 07:47:59;;;;;;;6.93;6.43;;;26.70;46.00;;;;;;10264278;28;20291;-71
2023/08/15 07:53:02;;;;;;;7.17;6.67;;;26.90;46.20;;;;;;10276444;28;20238;-71
2023/08/15 07:58:05;;;;;;;7.70;7.10;;;27.00;46.00;;;;;;10274271;28;20246;-71
2023/08/15 08:03:10;;;;;;;7.80;7.20;;;27.20;45.70;;;;;;10273970;28;20236;-71
2023/08/15 08:08:13;;;;;;;7.87;7.17;;;27.30;45.80;;;;;;10273563;28;20231;-71
2023/08/15 08:13:18;;;;;;;8.77;8.07;;;27.50;45.70;;;;;;10265533;28;20236;-71
2023/08/15 08:18:24;;;;;;;8.40;7.70;;;27.70;45.40;;;;;;10271000;28;20319;-71
2023/08/15 08:23:27;;;;;;;9.07;8.33;;;27.90;45.10;;;;;;10268599;28;20708;-71
2023/08/15 08:28:30;;;;;;;8.40;7.70;;;28.10;45.20;;;;;;10266049;28;20234;-71
2023/08/15 08:33:35;;;;;;;7.77;7.23;;;28.20;45.10;;;;;;10274111;28;20231;-71
2023/08/15 08:38:38;;;;;;;8.40;7.60;;;28.40;44.70;;;;;;10263160;28;20319;-71
2023/08/15 08:43:41;;;;;;;7.67;7.17;;;28.70;44.80;;;;;;10269761;28;20759;-71
2023/08/15 08:48:47;;;;;;;7.37;6.77;;;28.90;44.50;;;;;;10271038;28;20241;-71
2023/08/15 08:53:51;;;;;;;7.23;6.63;;;29.10;42.60;;;;;;10269511;28;20831;-71
2023/08/15 08:59:00;;;;;;;7.80;7.20;;;29.30;43.30;;;;;;10263532;28;20236;-71
2023/08/15 09:04:05;;;;;;;6.47;5.97;;;29.50;42.10;;;;;;10267184;28;20464;-71
2023/08/15 09:09:09;;;;;;;6.57;6.03;;;29.80;43.10;;;;;;10270516;28;20265;-71
2023/08/15 09:14:15;;;;;;;6.77;6.27;;;30.00;41.90;;;;;;10266407;28;20246;-71
2023/08/15 09:19:19;;;;;;;6.60;6.20;;;30.20;41.80;;;;;;10268961;28;20315;-71
2023/08/15 09:24:27;;;;;;;6.40;5.87;;;30.40;41.00;;;;;;10263625;28;20227;-71
2023/08/15 09:29:30;;;;;;;6.40;5.90;;;30.60;40.40;;;;;;10277783;28;20283;-71
2023/08/15 09:34:35;;;;;;;6.10;5.70;;;30.80;40.80;;;;;;10261166;28;20758;-71
2023/08/15 09:39:40;;;;;;;6.00;5.60;;;30.90;39.90;;;;;;10264505;28;20319;-71
2023/08/15 09:44:43;;;;;;;6.57;5.93;;;31.00;40.20;;;;;;10266461;28;20224;-71
2023/08/15 09:49:51;;;;;;;6.10;5.60;;;31.20;39.70;;;;;;10269389;28;20712;-71
2023/08/15 09:54:56;;;;;;;6.03;5.57;;;31.30;38.90;;;;;;10262533;28;20239;-71
2023/08/15 09:59:59;;;;;;;6.13;5.67;;;31.50;39.00;;;;;;10268232;28;20608;-71
2023/08/15 10:05:06;;;;;;;5.63;5.33;;;31.70;39.30;;;;;;10263117;28;20279;-71
2023/08/15 10:10:10;;;;;;;6.70;6.20;;;31.90;38.40;;;;;;10269249;28;20278;-71
2023/08/15 10:15:14;;;;;;;6.50;6.00;;;32.00;38.50;;;;;;10265076;28;20227;-71
2023/08/15 10:20:21;;;;;;;6.17;5.70;;;32.20;38.20;;;;;;10257513;28;20265;-71
2023/08/15 10:25:35;;;;;;;5.57;5.23;;;32.40;37.60;;;;;;10268345;28;20316;-71
2023/08/15 10:30:41;;;;;;;5.50;5.10;;;32.50;37.20;;;;;;10265015;28;20236;-71
2023/08/15 10:36:08;;;;;;;5.47;5.07;;;32.80;36.80;;;;;;10260247;28;20247;-71
2023/08/15 10:41:16;;;;;;;5.40;5.10;;;33.00;36.30;;;;;;10263454;28;20365;-71
2023/08/15 10:46:25;;;;;;;5.30;4.90;;;33.20;35.40;;;;;;10268132;28;20235;-71
2023/08/15 10:51:31;;;;;;;5.27;4.97;;;33.30;34.90;;;;;;10264766;28;20252;-70
2023/08/15 10:56:36;;;;;;;5.33;5.03;;;33.40;34.60;;;;;;10269994;28;20246;-71
2023/08/15 11:01:42;;;;;;;4.90;4.60;;;33.50;35.10;;;;;;10266986;28;20344;-70
2023/08/15 11:06:48;;;;;;;4.70;4.40;;;33.70;34.00;;;;;;10263303;28;20312;-71
2023/08/15 11:11:51;;;;;;;5.43;4.87;;;33.80;33.00;;;;;;10259989;28;20633;-71
2023/08/15 11:16:55;;;;;;;4.40;4.10;;;33.90;34.10;;;;;;10264080;28;20234;-71
2023/08/15 11:21:59;;;;;;;4.60;4.13;;;34.00;33.20;;;;;;10264808;28;20618;-71
2023/08/15 11:27:02;;;;;;;4.00;3.70;;;34.10;31.30;;;;;;10262492;28;20265;-71
2023/08/15 11:32:06;;;;;;;4.67;4.37;;;34.20;31.30;;;;;;10262832;28;20236;-71
2023/08/15 11:37:13;;;;;;;4.50;4.10;;;34.10;30.80;;;;;;10261564;28;20236;-71
2023/08/15 11:42:16;;;;;;;4.30;4.00;;;34.00;29.80;;;;;;10259558;28;20712;-71
2023/08/15 11:47:20;;;;;;;4.30;3.90;;;33.90;30.20;;;;;;10257161;28;20259;-72
2023/08/15 11:52:25;;;;;;;4.60;4.20;;;33.80;31.00;;;;;;10263960;28;20290;-71
2023/08/15 11:57:34;;;;;;;4.17;3.87;;;33.80;29.90;;;;;;10264827;28;20243;-71
2023/08/15 12:02:43;;;;;;;4.80;4.00;;;33.80;30.00;;;;;;10266853;28;20605;-71
2023/08/15 12:07:49;;;;;;;4.10;3.80;;;33.80;29.30;;;;;;10270716;28;20266;-71
2023/08/15 12:12:52;;;;;;;4.10;3.80;;;33.80;29.60;;;;;;10266397;28;20241;-71
2023/08/15 12:17:55;;;;;;;3.63;3.33;;;33.80;30.00;;;;;;10267246;28;20609;-71
2023/08/15 12:23:00;;;;;;;3.57;3.10;;;33.90;29.10;;;;;;10269893;28;20255;-71
2023/08/15 12:28:07;;;;;;;4.43;3.30;;;33.90;27.70;;;;;;10272623;28;20236;-71
2023/08/15 12:33:11;;;;;;;4.77;2.60;;;34.10;27.80;;;;;;10272715;28;20646;-71
2023/08/15 12:38:19;;;;;;;6.93;3.33;;;34.00;27.50;;;;;;10266576;28;20265;-71
2023/08/15 12:43:22;;;;;;;4.03;3.20;;;34.10;24.50;;;;;;10265374;28;20235;-71
2023/08/15 12:48:25;;;;;;;3.67;3.17;;;34.00;25.40;;;;;;10270541;28;20308;-71
2023/08/15 12:53:30;;;;;;;3.80;2.97;;;34.10;25.10;;;;;;10269954;28;20242;-71
2023/08/15 12:58:33;;;;;;;4.00;2.70;;;34.10;25.00;;;;;;10272837;28;20314;-71
2023/08/15 13:03:36;;;;;;;4.50;3.40;;;34.20;25.80;;;;;;10269330;28;20236;-71
2023/08/15 13:08:41;;;;;;;4.37;3.57;;;34.30;25.60;;;;;;10261889;28;20247;-71
2023/08/15 13:13:44;;;;;;;3.73;3.43;;;34.20;24.60;;;;;;10264367;28;20253;-71
2023/08/15 13:18:47;;;;;;;3.80;3.50;;;34.20;25.20;;;;;;10264428;28;20275;-71
2023/08/15 13:23:52;;;;;;;3.93;3.63;;;34.10;25.30;;;;;;10258931;28;20236;-71
2023/08/15 13:28:55;;;;;;;4.40;3.70;;;33.90;24.60;;;;;;10264875;28;20243;-71
2023/08/15 13:33:59;;;;;;;3.77;3.40;;;33.80;25.10;;;;;;10264455;28;20321;-70
2023/08/15 13:39:05;;;;;;;3.77;3.00;;;33.70;25.20;;;;;;10274053;28;20710;-71
2023/08/15 13:44:08;;;;;;;3.80;2.97;;;33.60;24.90;;;;;;10257857;28;20323;-71
2023/08/15 13:49:11;;;;;;;6.63;3.40;;;33.40;25.20;;;;;;10264326;28;20235;-71
2023/08/15 13:54:16;;;;;;;3.37;3.07;;;33.30;25.00;;;;;;10261656;28;20265;-71
2023/08/15 13:59:19;;;;;;;2.83;2.63;;;33.20;24.60;;;;;;10266834;28;20319;-71
2023/08/15 14:04:22;;;;;;;3.20;2.53;;;33.10;25.00;;;;;;10261868;28;20351;-71
2023/08/15 14:09:26;;;;;;;2.83;2.63;;;33.10;24.90;;;;;;10261058;28;20836;-71
2023/08/15 14:14:29;;;;;;;3.20;2.63;;;33.00;24.40;;;;;;10266786;28;20319;-71
2023/08/15 14:19:33;;;;;;;2.80;2.60;;;33.00;24.80;;;;;;10264035;28;20236;-71
2023/08/15 14:24:37;;;;;;;2.93;2.73;;;33.10;25.50;;;;;;10258893;28;20727;-71
2023/08/15 14:29:40;;;;;;;3.30;2.40;;;33.20;24.30;;;;;;10262896;28;20318;-71
2023/08/15 14:34:43;;;;;;;2.70;2.50;;;33.30;23.90;;;;;;10258084;28;20263;-71
2023/08/15 14:39:48;;;;;;;2.53;2.40;;;33.30;23.50;;;;;;10267501;28;20263;-71
2023/08/15 14:44:51;;;;;;;2.57;2.33;;;33.30;22.80;;;;;;10267757;28;20232;-71
2023/08/15 14:49:57;;;;;;;2.40;2.20;;;33.40;23.20;;;;;;10261320;28;20911;-71
2023/08/15 14:55:01;;;;;;;3.53;2.23;;;33.20;22.90;;;;;;10259660;28;20326;-71
2023/08/15 15:00:07;;;;;;;2.90;2.50;;;33.20;22.80;;;;;;10263508;28;20330;-71
2023/08/15 15:05:11;;;;;;;2.97;2.50;;;33.20;22.80;;;;;;10262924;28;20228;-70
2023/08/15 15:10:15;;;;;;;3.87;2.40;;;33.20;22.80;;;;;;10267579;28;20231;-71
2023/08/15 15:15:19;;;;;;;3.77;2.40;;;33.10;22.70;;;;;;10269962;28;20236;-71
2023/08/15 15:20:30;;;;;;;2.50;2.30;;;33.10;22.70;;;;;;10268633;28;20582;-70
2023/08/15 15:25:34;;;;;;;3.23;2.30;;;33.00;23.00;;;;;;10262339;28;20287;-71
2023/08/15 15:30:38;;;;;;;2.87;2.30;;;33.00;22.70;;;;;;10260860;28;20232;-71
2023/08/15 15:35:41;;;;;;;3.20;2.20;;;33.00;22.70;;;;;;10273157;28;20232;-71
2023/08/15 15:40:46;;;;;;;2.43;2.23;;;32.90;22.70;;;;;;10271725;28;20246;-71
2023/08/15 15:45:49;;;;;;;2.10;1.90;;;32.90;22.60;;;;;;10263229;28;20250;-71
2023/08/15 15:50:52;;;;;;;2.33;2.13;;;32.90;23.30;;;;;;10270864;28;20290;-71
2023/08/15 15:55:57;;;;;;;2.60;2.40;;;32.90;23.40;;;;;;10271221;28;20255;-71
2023/08/15 16:01:00;;;;;;;2.80;2.60;;;32.80;24.00;;;;;;10275359;28;20226;-71
2023/08/15 16:06:03;;;;;;;3.40;2.70;;;32.70;24.00;;;;;;10272884;28;20258;-71
2023/08/15 16:11:08;;;;;;;3.37;2.60;;;32.50;24.20;;;;;;10282105;28;20232;-71
2023/08/15 16:16:11;;;;;;;3.70;2.90;;;32.30;24.40;;;;;;10270259;28;20346;-71
2023/08/15 16:21:15;;;;;;;2.77;2.50;;;32.00;24.80;;;;;;10271728;28;20634;-71
2023/08/15 16:26:23;;;;;;;4.53;2.60;;;31.90;25.00;;;;;;10267263;28;20767;-71
2023/08/15 16:31:26;;;;;;;3.20;2.80;;;31.70;25.00;;;;;;10272409;28;20263;-70
2023/08/15 16:36:30;;;;;;;2.83;2.60;;;31.60;25.20;;;;;;10270763;28;20290;-71
2023/08/15 16:41:34;;;;;;;5.03;3.10;;;31.50;25.50;;;;;;10271494;28;20346;-71
2023/08/15 16:46:37;;;;;;;3.50;2.87;;;31.30;25.90;;;;;;10271934;28;20315;-71
2023/08/15 16:51:41;;;;;;;3.47;2.67;;;31.20;25.90;;;;;;10265427;28;20244;-70
2023/08/15 16:56:45;;;;;;;4.47;2.73;;;31.10;26.20;;;;;;10269932;28;20255;-71
2023/08/15 17:01:48;;;;;;;2.80;2.60;;;31.00;26.40;;;;;;10269153;28;20242;-71
2023/08/15 17:06:52;;;;;;;4.97;3.07;;;30.90;27.10;;;;;;10278756;28;20246;-71
2023/08/15 17:11:56;;;;;;;3.00;2.70;;;30.70;27.30;;;;;;10277133;28;20725;-71
2023/08/15 17:16:59;;;;;;;3.10;2.80;;;30.70;26.90;;;;;;10277803;28;20312;-70
2023/08/15 17:22:03;;;;;;;3.20;2.90;;;30.60;26.90;;;;;;10268862;28;20242;-71
2023/08/15 17:27:07;;;;;;;4.90;2.93;;;30.60;27.20;;;;;;10276756;28;20232;-70
2023/08/15 17:32:10;;;;;;;5.37;2.90;;;30.50;27.10;;;;;;10267552;28;20235;-71
2023/08/15 17:37:13;;;;;;;3.00;2.80;;;30.30;27.20;;;;;;10270230;28;20249;-70
2023/08/15 17:42:18;;;;;;;3.37;2.87;;;30.20;27.70;;;;;;10273195;28;20326;-71
2023/08/15 17:47:21;;;;;;;3.17;2.90;;;30.00;29.00;;;;;;10273612;28;20931;-71
2023/08/15 17:52:25;;;;;;;3.90;3.07;;;29.70;28.70;;;;;;10267379;28;20240;-70
2023/08/15 17:57:29;;;;;;;3.20;2.90;;;29.50;29.40;;;;;;10267015;28;20870;-69
2023/08/15 18:02:32;;;;;;;3.17;2.70;;;29.40;30.10;;;;;;10274795;28;20242;-70
2023/08/15 18:07:35;;;;;;;4.57;3.00;;;29.30;29.90;;;;;;10280807;28;20306;-70
2023/08/15 18:12:40;;;;;;;6.70;2.90;;;29.10;30.50;;;;;;10274996;28;20235;-70
2023/08/15 18:17:45;;;;;;;4.30;2.93;;;29.00;30.90;;;;;;10273999;28;20659;-70
2023/08/15 18:22:48;;;;;;;4.10;3.00;;;29.00;30.90;;;;;;10271969;28;20246;-70
2023/08/15 18:27:53;;;;;;;4.10;3.60;;;28.90;31.20;;;;;;10276574;28;20238;-69
2023/08/15 18:32:56;;;;;;;5.50;3.77;;;28.90;32.80;;;;;;10275152;28;20323;-70
2023/08/15 18:37:59;;;;;;;5.17;3.80;;;28.60;31.90;;;;;;10270654;28;20236;-70
2023/08/15 18:43:04;;;;;;;5.27;3.80;;;28.20;32.40;;;;;;10264501;28;20235;-70
2023/08/15 18:48:07;;;;;;;4.73;3.77;;;27.80;34.10;;;;;;10265092;28;20327;-70
2023/08/15 18:53:11;;;;;;;4.53;3.80;;;27.50;33.90;;;;;;10273739;28;20717;-70
2023/08/15 18:58:15;;;;;;;5.40;4.17;;;27.30;34.50;;;;;;10269704;28;20319;-70
2023/08/15 19:03:19;;;;;;;5.00;3.80;;;27.20;35.70;;;;;;10271477;28;20238;-70
2023/08/15 19:08:22;;;;;;;4.00;3.57;;;27.10;34.90;;;;;;10275860;28;20456;-70
2023/08/15 19:13:27;;;;;;;4.27;3.63;;;27.10;35.30;;;;;;10278878;28;20241;-70
2023/08/15 19:18:32;;;;;;;4.73;4.30;;;27.10;36.50;;;;;;10274973;28;20674;-70
2023/08/15 19:23:35;;;;;;;4.50;4.10;;;27.10;36.50;;;;;;10280374;28;20780;-70
2023/08/15 19:28:39;;;;;;;4.87;4.20;;;26.90;36.20;;;;;;10275372;28;20341;-70
2023/08/15 19:33:43;;;;;;;5.07;4.37;;;26.70;37.70;;;;;;10278069;28;20251;-70
2023/08/15 19:38:46;;;;;;;4.43;4.03;;;26.50;37.30;;;;;;10281331;28;20234;-70
2023/08/15 19:43:55;;;;;;;4.53;4.13;;;26.30;37.60;;;;;;10282623;28;20260;-70
2023/08/15 19:48:59;;;;;;;4.90;4.50;;;26.20;38.90;;;;;;10278205;28;20235;-70
2023/08/15 19:54:02;;;;;;;4.67;4.17;;;26.10;38.30;;;;;;10280546;28;20303;-70
2023/08/15 19:59:06;;;;;;;5.07;4.57;;;26.00;38.60;;;;;;10265324;28;20963;-70
2023/08/15 20:04:10;;;;;;;4.47;4.07;;;25.90;40.10;;;;;;10269942;28;20322;-70
2023/08/15 20:09:14;;;;;;;8.07;4.60;;;25.90;39.10;;;;;;10277512;28;20228;-70
2023/08/15 20:14:18;;;;;;;6.03;4.53;;;25.90;39.10;;;;;;10279386;28;20258;-70
2023/08/15 20:19:21;;;;;;;5.57;4.97;;;25.80;40.60;;;;;;10274255;28;20374;-70
2023/08/15 20:24:25;;;;;;;6.13;4.73;;;25.70;39.60;;;;;;10276319;28;20311;-70
2023/08/15 20:29:30;;;;;;;5.00;4.20;;;25.70;39.90;;;;;;10280092;28;20239;-70
2023/08/15 20:34:33;;;;;;;5.47;4.20;;;25.60;41.00;;;;;;10278985;28;20639;-70
2023/08/15 20:39:36;;;;;;;4.63;4.23;;;25.70;40.10;;;;;;10283921;28;20231;-70
2023/08/15 20:44:41;;;;;;;5.53;4.20;;;25.70;40.20;;;;;;10269344;28;20728;-70
2023/08/15 20:49:44;;;;;;;5.57;4.53;;;25.70;41.30;;;;;;10280429;28;20921;-70
2023/08/15 20:54:47;;;;;;;4.53;4.13;;;25.80;40.10;;;;;;10275837;28;20236;-70
2023/08/15 20:59:52;;;;;;;4.00;3.70;;;25.80;40.20;;;;;;10272778;28;20260;-70
2023/08/15 21:04:55;;;;;;;4.87;4.30;;;25.80;41.20;;;;;;10270949;28;20243;-70
2023/08/15 21:09:58;;;;;;;3.80;3.50;;;25.70;40.20;;;;;;10269116;28;20250;-70
2023/08/15 21:15:08;;;;;;;4.13;3.30;;;25.70;40.10;;;;;;10279805;28;20252;-70
2023/08/15 21:20:12;;;;;;;7.37;4.00;;;25.70;42.00;;;;;;10268215;28;20240;-71
2023/08/15 21:25:15;;;;;;;4.17;3.77;;;25.70;40.60;;;;;;10278821;28;20240;-70
2023/08/15 21:30:20;;;;;;;4.87;4.00;;;25.70;40.70;;;;;;10266880;28;20237;-70
2023/08/15 21:35:23;;;;;;;6.10;4.17;;;25.70;41.30;;;;;;10276409;28;20234;-70
2023/08/15 21:40:27;;;;;;;4.57;4.17;;;25.70;40.90;;;;;;10271530;28;20264;-70
2023/08/15 21:45:31;;;;;;;4.47;4.07;;;25.80;40.90;;;;;;10267772;28;20310;-70
2023/08/15 21:50:34;;;;;;;4.30;4.00;;;25.70;41.30;;;;;;10274061;28;20613;-70
2023/08/15 21:55:38;;;;;;;4.67;4.27;;;25.70;41.30;;;;;;10272731;28;20827;-70
2023/08/15 22:00:42;;;;;;;4.40;4.03;;;25.60;41.30;;;;;;10277739;28;20242;-70
2023/08/15 22:05:46;;;;;;;4.03;3.73;;;25.60;42.10;;;;;;10270819;28;20231;-70
2023/08/15 22:10:49;;;;;;;4.63;4.20;;;25.60;41.30;;;;;;10275582;28;20806;-70
2023/08/15 22:15:54;;;;;;;4.10;3.80;;;25.70;41.30;;;;;;10274093;28;20246;-70
2023/08/15 22:20:57;;;;;;;4.43;3.90;;;25.60;42.90;;;;;;10267891;28;20660;-70
2023/08/15 22:26:01;;;;;;;4.23;3.93;;;25.70;41.30;;;;;;10263828;28;20627;-70
2023/08/15 22:31:05;;;;;;;4.70;4.30;;;25.70;41.30;;;;;;10264695;28;20227;-70
2023/08/15 22:36:09;;;;;;;5.03;4.10;;;25.70;42.00;;;;;;10279448;28;20990;-70
2023/08/15 22:41:12;;;;;;;4.13;3.73;;;25.70;41.30;;;;;;10266959;28;20750;-70
2023/08/15 22:46:17;;;;;;;4.30;4.00;;;25.70;41.40;;;;;;10277645;28;20711;-70
2023/08/15 22:51:20;;;;;;;4.07;3.70;;;25.70;42.10;;;;;;10275350;28;20239;-70
2023/08/15 22:56:26;;;;;;;4.87;4.30;;;25.70;41.40;;;;;;10274932;28;20238;-70
2023/08/15 23:01:30;;;;;;;4.33;4.03;;;25.80;41.40;;;;;;10274799;28;20247;-70
2023/08/15 23:06:34;;;;;;;4.27;3.80;;;25.80;41.80;;;;;;10269120;28;20239;-70
2023/08/15 23:11:37;;;;;;;4.90;4.40;;;25.70;41.30;;;;;;10271143;28;20343;-70
2023/08/15 23:16:41;;;;;;;5.97;4.23;;;25.70;41.40;;;;;;10262515;28;20241;-70
2023/08/15 23:21:44;;;;;;;4.30;3.90;;;25.70;42.10;;;;;;10271444;28;20641;-70
2023/08/15 23:26:47;;;;;;;3.70;3.40;;;25.60;41.30;;;;;;10269380;28;20254;-70
2023/08/15 23:31:53;;;;;;;5.60;4.60;;;25.60;41.30;;;;;;10275005;28;20234;-70
2023/08/15 23:36:56;;;;;;;4.80;4.10;;;25.50;42.40;;;;;;10273419;28;20319;-70
2023/08/15 23:42:00;;;;;;;4.43;3.80;;;25.40;41.80;;;;;;10266754;28;20602;-70
2023/08/15 23:47:05;;;;;;;4.67;4.27;;;25.40;41.90;;;;;;10266657;28;20697;-70
2023/08/15 23:52:08;;;;;;;4.90;4.40;;;25.30;42.90;;;;;;10265567;28;20254;-70
2023/08/15 23:57:11;;;;;;;4.87;4.40;;;25.30;42.40;;;;;;10271072;28;20235;-70
